sensor_id;sensor_type;location;lat;lon;timestamp;P1;durP1;ratioP1;P2;durP2;ratioP2
78612;SDS011;67933;51.060;3.638;2023-03-23T00:00:43;2.55;;;2.15;;
78612;SDS011;67933;51.060;3.638;2023-03-23T00:03:09;3.22;;;1.75;;
78612;SDS011;67933;51.060;3.638;2023-03-23T00:05:34;3.45;;;2.20;;
78612;SDS011;67933;51.060;3.638;2023-03-23T00:08:02;6.63;;;2.97;;
78612;SDS011;67933;51.060;3.638;2023-03-23T00:10:28;3.25;;;2.38;;
78612;SDS011;67933;51.060;3.638;2023-03-23T00:12:58;4.15;;;2.13;;
78612;SDS011;67933;51.060;3.638;2023-03-23T00:15:27;1.95;;;1.75;;
78612;SDS011;67933;51.060;3.638;2023-03-23T00:17:55;3.35;;;2.33;;
78612;SDS011;67933;51.060;3.638;2023-03-23T00:20:27;3.15;;;1.83;;
78612;SDS011;67933;51.060;3.638;2023-03-23T00:22:54;3.63;;;2.35;;
78612;SDS011;67933;51.060;3.638;2023-03-23T00:25:25;3.10;;;2.13;;
78612;SDS011;67933;51.060;3.638;2023-03-23T00:27:51;3.03;;;2.03;;
78612;SDS011;67933;51.060;3.638;2023-03-23T00:30:16;5.68;;;2.00;;
78612;SDS011;67933;51.060;3.638;2023-03-23T00:32:42;4.50;;;2.00;;
78612;SDS011;67933;51.060;3.638;2023-03-23T00:35:08;3.65;;;1.80;;
78612;SDS011;67933;51.060;3.638;2023-03-23T00:37:34;3.28;;;2.20;;
78612;SDS011;67933;51.060;3.638;2023-03-23T00:40:00;4.50;;;2.40;;
78612;SDS011;67933;51.060;3.638;2023-03-23T00:42:30;3.00;;;2.15;;
78612;SDS011;67933;51.060;3.638;2023-03-23T00:45:01;2.80;;;1.80;;
78612;SDS011;67933;51.060;3.638;2023-03-23T00:47:27;3.00;;;1.92;;
78612;SDS011;67933;51.060;3.638;2023-03-23T00:49:53;2.83;;;2.03;;
78612;SDS011;67933;51.060;3.638;2023-03-23T00:54:46;4.75;;;2.10;;
78612;SDS011;67933;51.060;3.638;2023-03-23T00:57:12;3.42;;;2.53;;
78612;SDS011;67933;51.060;3.638;2023-03-23T00:59:37;4.20;;;2.40;;
78612;SDS011;67933;51.060;3.638;2023-03-23T01:02:02;2.72;;;1.92;;
78612;SDS011;67933;51.060;3.638;2023-03-23T01:04:28;2.55;;;1.73;;
78612;SDS011;67933;51.060;3.638;2023-03-23T01:06:56;2.78;;;1.60;;
78612;SDS011;67933;51.060;3.638;2023-03-23T01:09:22;3.58;;;2.03;;
78612;SDS011;67933;51.060;3.638;2023-03-23T01:11:48;2.67;;;1.85;;
78612;SDS011;67933;51.060;3.638;2023-03-23T01:14:16;3.50;;;2.35;;
78612;SDS011;67933;51.060;3.638;2023-03-23T01:16:43;2.10;;;1.60;;
78612;SDS011;67933;51.060;3.638;2023-03-23T01:19:09;2.53;;;2.10;;
78612;SDS011;67933;51.060;3.638;2023-03-23T01:21:35;2.90;;;1.83;;
78612;SDS011;67933;51.060;3.638;2023-03-23T01:24:01;5.90;;;1.63;;
78612;SDS011;67933;51.060;3.638;2023-03-23T01:26:27;2.15;;;1.70;;
78612;SDS011;67933;51.060;3.638;2023-03-23T01:28:53;3.22;;;2.13;;
78612;SDS011;67933;51.060;3.638;2023-03-23T01:31:20;2.55;;;1.42;;
78612;SDS011;67933;51.060;3.638;2023-03-23T01:33:48;2.47;;;1.90;;
78612;SDS011;67933;51.060;3.638;2023-03-23T01:36:23;2.15;;;1.80;;
78612;SDS011;67933;51.060;3.638;2023-03-23T01:38:54;2.72;;;2.22;;
78612;SDS011;67933;51.060;3.638;2023-03-23T01:41:20;3.83;;;1.98;;
78612;SDS011;67933;51.060;3.638;2023-03-23T01:46:22;3.33;;;1.52;;
78612;SDS011;67933;51.060;3.638;2023-03-23T01:48:50;2.00;;;1.70;;
78612;SDS011;67933;51.060;3.638;2023-03-23T01:51:15;3.40;;;1.73;;
78612;SDS011;67933;51.060;3.638;2023-03-23T01:53:48;5.18;;;1.90;;
78612;SDS011;67933;51.060;3.638;2023-03-23T01:56:19;1.95;;;1.33;;
78612;SDS011;67933;51.060;3.638;2023-03-23T01:58:50;3.83;;;1.65;;
78612;SDS011;67933;51.060;3.638;2023-03-23T02:01:16;4.53;;;1.83;;
78612;SDS011;67933;51.060;3.638;2023-03-23T02:03:42;2.33;;;1.58;;
78612;SDS011;67933;51.060;3.638;2023-03-23T02:06:10;2.08;;;1.20;;
78612;SDS011;67933;51.060;3.638;2023-03-23T02:08:36;4.30;;;1.80;;
78612;SDS011;67933;51.060;3.638;2023-03-23T02:11:15;3.80;;;2.20;;
78612;SDS011;67933;51.060;3.638;2023-03-23T02:13:45;3.78;;;1.30;;
78612;SDS011;67933;51.060;3.638;2023-03-23T02:25:05;5.43;;;1.55;;
78612;SDS011;67933;51.060;3.638;2023-03-23T02:30:27;4.15;;;1.23;;
78612;SDS011;67933;51.060;3.638;2023-03-23T02:33:25;2.50;;;1.38;;
78612;SDS011;67933;51.060;3.638;2023-03-23T02:35:58;2.90;;;1.88;;
78612;SDS011;67933;51.060;3.638;2023-03-23T02:41:08;2.95;;;1.20;;
78612;SDS011;67933;51.060;3.638;2023-03-23T02:43:38;4.75;;;1.30;;
78612;SDS011;67933;51.060;3.638;2023-03-23T02:46:08;3.15;;;1.10;;
78612;SDS011;67933;51.060;3.638;2023-03-23T02:48:35;3.40;;;1.50;;
78612;SDS011;67933;51.060;3.638;2023-03-23T02:51:03;1.60;;;1.23;;
78612;SDS011;67933;51.060;3.638;2023-03-23T02:55:58;3.65;;;1.55;;
78612;SDS011;67933;51.060;3.638;2023-03-23T02:58:27;3.47;;;1.20;;
78612;SDS011;67933;51.060;3.638;2023-03-23T03:00:54;2.25;;;1.33;;
78612;SDS011;67933;51.060;3.638;2023-03-23T03:03:22;4.75;;;1.40;;
78612;SDS011;67933;51.060;3.638;2023-03-23T03:06:00;3.65;;;1.40;;
78612;SDS011;67933;51.060;3.638;2023-03-23T03:11:28;3.85;;;1.23;;
78612;SDS011;67933;51.060;3.638;2023-03-23T03:13:58;3.00;;;1.38;;
78612;SDS011;67933;51.060;3.638;2023-03-23T03:21:50;5.03;;;1.38;;
78612;SDS011;67933;51.060;3.638;2023-03-23T03:24:18;6.32;;;1.63;;
78612;SDS011;67933;51.060;3.638;2023-03-23T03:26:46;3.13;;;1.40;;
78612;SDS011;67933;51.060;3.638;2023-03-23T03:29:14;4.15;;;1.45;;
78612;SDS011;67933;51.060;3.638;2023-03-23T03:31:43;3.17;;;1.70;;
78612;SDS011;67933;51.060;3.638;2023-03-23T03:34:11;1.65;;;1.30;;
78612;SDS011;67933;51.060;3.638;2023-03-23T03:36:43;4.40;;;1.52;;
78612;SDS011;67933;51.060;3.638;2023-03-23T03:39:11;3.13;;;1.30;;
78612;SDS011;67933;51.060;3.638;2023-03-23T03:41:40;3.20;;;1.30;;
78612;SDS011;67933;51.060;3.638;2023-03-23T03:44:06;1.95;;;1.13;;
78612;SDS011;67933;51.060;3.638;2023-03-23T03:46:32;4.47;;;1.30;;
78612;SDS011;67933;51.060;3.638;2023-03-23T03:48:58;2.90;;;1.35;;
78612;SDS011;67933;51.060;3.638;2023-03-23T03:51:26;3.08;;;1.20;;
78612;SDS011;67933;51.060;3.638;2023-03-23T03:53:52;3.42;;;0.93;;
78612;SDS011;67933;51.060;3.638;2023-03-23T03:56:18;3.70;;;1.35;;
78612;SDS011;67933;51.060;3.638;2023-03-23T03:58:44;2.45;;;1.17;;
78612;SDS011;67933;51.060;3.638;2023-03-23T04:01:10;4.97;;;1.30;;
78612;SDS011;67933;51.060;3.638;2023-03-23T04:03:36;3.85;;;1.52;;
78612;SDS011;67933;51.060;3.638;2023-03-23T04:06:02;3.80;;;1.13;;
78612;SDS011;67933;51.060;3.638;2023-03-23T04:08:28;3.10;;;1.55;;
78612;SDS011;67933;51.060;3.638;2023-03-23T04:10:54;3.20;;;1.40;;
78612;SDS011;67933;51.060;3.638;2023-03-23T04:13:20;3.55;;;1.38;;
78612;SDS011;67933;51.060;3.638;2023-03-23T04:15:46;5.70;;;1.92;;
78612;SDS011;67933;51.060;3.638;2023-03-23T04:18:12;3.08;;;1.30;;
78612;SDS011;67933;51.060;3.638;2023-03-23T04:20:41;4.32;;;1.13;;
78612;SDS011;67933;51.060;3.638;2023-03-23T04:23:07;6.03;;;1.63;;
78612;SDS011;67933;51.060;3.638;2023-03-23T04:25:33;3.63;;;1.40;;
78612;SDS011;67933;51.060;3.638;2023-03-23T04:27:58;5.30;;;1.42;;
78612;SDS011;67933;51.060;3.638;2023-03-23T04:30:26;2.83;;;2.17;;
78612;SDS011;67933;51.060;3.638;2023-03-23T04:32:54;6.25;;;2.28;;
78612;SDS011;67933;51.060;3.638;2023-03-23T04:35:20;2.63;;;1.48;;
78612;SDS011;67933;51.060;3.638;2023-03-23T04:37:48;3.65;;;1.08;;
78612;SDS011;67933;51.060;3.638;2023-03-23T04:40:14;3.15;;;1.42;;
78612;SDS011;67933;51.060;3.638;2023-03-23T04:42:41;7.32;;;1.60;;
78612;SDS011;67933;51.060;3.638;2023-03-23T04:45:15;5.07;;;1.20;;
78612;SDS011;67933;51.060;3.638;2023-03-23T04:47:46;7.00;;;2.33;;
78612;SDS011;67933;51.060;3.638;2023-03-23T04:50:19;3.38;;;1.02;;
78612;SDS011;67933;51.060;3.638;2023-03-23T04:52:49;5.15;;;1.35;;
78612;SDS011;67933;51.060;3.638;2023-03-23T04:55:16;5.40;;;1.73;;
78612;SDS011;67933;51.060;3.638;2023-03-23T04:57:42;5.82;;;1.70;;
78612;SDS011;67933;51.060;3.638;2023-03-23T05:00:09;6.13;;;1.67;;
78612;SDS011;67933;51.060;3.638;2023-03-23T05:02:41;3.80;;;1.42;;
78612;SDS011;67933;51.060;3.638;2023-03-23T05:05:07;6.63;;;1.63;;
78612;SDS011;67933;51.060;3.638;2023-03-23T05:07:35;8.63;;;1.40;;
78612;SDS011;67933;51.060;3.638;2023-03-23T05:10:02;7.85;;;1.67;;
78612;SDS011;67933;51.060;3.638;2023-03-23T05:12:27;4.60;;;1.50;;
78612;SDS011;67933;51.060;3.638;2023-03-23T05:14:53;6.68;;;2.22;;
78612;SDS011;67933;51.060;3.638;2023-03-23T05:17:18;5.43;;;2.03;;
78612;SDS011;67933;51.060;3.638;2023-03-23T05:19:44;6.45;;;1.75;;
78612;SDS011;67933;51.060;3.638;2023-03-23T05:22:12;7.15;;;2.42;;
78612;SDS011;67933;51.060;3.638;2023-03-23T05:24:40;5.70;;;1.80;;
78612;SDS011;67933;51.060;3.638;2023-03-23T05:27:07;3.72;;;1.55;;
78612;SDS011;67933;51.060;3.638;2023-03-23T05:29:34;6.35;;;1.90;;
78612;SDS011;67933;51.060;3.638;2023-03-23T05:32:02;4.75;;;1.88;;
78612;SDS011;67933;51.060;3.638;2023-03-23T05:34:29;7.03;;;1.75;;
78612;SDS011;67933;51.060;3.638;2023-03-23T05:36:57;8.30;;;2.00;;
78612;SDS011;67933;51.060;3.638;2023-03-23T05:39:23;8.32;;;2.67;;
78612;SDS011;67933;51.060;3.638;2023-03-23T05:41:48;5.55;;;1.67;;
78612;SDS011;67933;51.060;3.638;2023-03-23T05:44:13;7.75;;;2.05;;
78612;SDS011;67933;51.060;3.638;2023-03-23T05:46:39;5.60;;;1.63;;
78612;SDS011;67933;51.060;3.638;2023-03-23T05:49:05;8.05;;;2.28;;
78612;SDS011;67933;51.060;3.638;2023-03-23T05:51:30;4.00;;;1.80;;
78612;SDS011;67933;51.060;3.638;2023-03-23T05:53:56;5.40;;;1.50;;
78612;SDS011;67933;51.060;3.638;2023-03-23T05:56:22;5.72;;;1.40;;
78612;SDS011;67933;51.060;3.638;2023-03-23T05:58:47;7.20;;;1.60;;
78612;SDS011;67933;51.060;3.638;2023-03-23T06:01:12;5.95;;;1.30;;
78612;SDS011;67933;51.060;3.638;2023-03-23T06:03:39;6.82;;;1.60;;
78612;SDS011;67933;51.060;3.638;2023-03-23T06:06:04;5.63;;;2.28;;
78612;SDS011;67933;51.060;3.638;2023-03-23T06:08:30;7.22;;;2.22;;
78612;SDS011;67933;51.060;3.638;2023-03-23T06:10:56;6.40;;;2.55;;
78612;SDS011;67933;51.060;3.638;2023-03-23T06:13:22;9.73;;;4.93;;
78612;SDS011;67933;51.060;3.638;2023-03-23T06:15:48;40.00;;;21.25;;
78612;SDS011;67933;51.060;3.638;2023-03-23T06:18:14;20.88;;;11.43;;
78612;SDS011;67933;51.060;3.638;2023-03-23T06:20:40;26.80;;;16.33;;
78612;SDS011;67933;51.060;3.638;2023-03-23T06:23:07;39.83;;;24.85;;
78612;SDS011;67933;51.060;3.638;2023-03-23T06:25:33;29.95;;;20.15;;
78612;SDS011;67933;51.060;3.638;2023-03-23T06:27:59;5.18;;;2.33;;
78612;SDS011;67933;51.060;3.638;2023-03-23T06:30:25;5.40;;;1.65;;
78612;SDS011;67933;51.060;3.638;2023-03-23T06:32:51;5.72;;;3.22;;
78612;SDS011;67933;51.060;3.638;2023-03-23T06:35:17;4.70;;;3.05;;
78612;SDS011;67933;51.060;3.638;2023-03-23T06:37:43;4.75;;;1.58;;
78612;SDS011;67933;51.060;3.638;2023-03-23T06:40:08;3.88;;;1.85;;
78612;SDS011;67933;51.060;3.638;2023-03-23T06:42:35;2.85;;;1.63;;
78612;SDS011;67933;51.060;3.638;2023-03-23T06:45:00;4.93;;;1.20;;
78612;SDS011;67933;51.060;3.638;2023-03-23T06:47:27;4.32;;;1.20;;
78612;SDS011;67933;51.060;3.638;2023-03-23T06:49:56;3.10;;;1.00;;
78612;SDS011;67933;51.060;3.638;2023-03-23T06:52:23;5.35;;;2.08;;
78612;SDS011;67933;51.060;3.638;2023-03-23T06:54:49;14.35;;;10.27;;
78612;SDS011;67933;51.060;3.638;2023-03-23T06:57:15;4.78;;;2.92;;
78612;SDS011;67933;51.060;3.638;2023-03-23T06:59:41;4.47;;;2.40;;
78612;SDS011;67933;51.060;3.638;2023-03-23T07:02:10;3.28;;;1.00;;
78612;SDS011;67933;51.060;3.638;2023-03-23T07:04:37;3.53;;;1.38;;
78612;SDS011;67933;51.060;3.638;2023-03-23T07:07:04;8.45;;;3.88;;
78612;SDS011;67933;51.060;3.638;2023-03-23T07:09:30;9.20;;;6.10;;
78612;SDS011;67933;51.060;3.638;2023-03-23T07:11:56;8.52;;;6.13;;
78612;SDS011;67933;51.060;3.638;2023-03-23T07:14:21;4.95;;;2.17;;
78612;SDS011;67933;51.060;3.638;2023-03-23T07:16:47;5.95;;;3.63;;
78612;SDS011;67933;51.060;3.638;2023-03-23T07:19:12;5.30;;;2.30;;
78612;SDS011;67933;51.060;3.638;2023-03-23T07:21:38;5.97;;;2.00;;
78612;SDS011;67933;51.060;3.638;2023-03-23T07:24:03;2.13;;;1.83;;
78612;SDS011;67933;51.060;3.638;2023-03-23T07:26:29;5.43;;;2.40;;
78612;SDS011;67933;51.060;3.638;2023-03-23T07:28:54;8.95;;;1.60;;
78612;SDS011;67933;51.060;3.638;2023-03-23T07:31:20;3.78;;;1.65;;
78612;SDS011;67933;51.060;3.638;2023-03-23T07:33:45;3.70;;;1.20;;
78612;SDS011;67933;51.060;3.638;2023-03-23T07:36:11;6.40;;;1.45;;
78612;SDS011;67933;51.060;3.638;2023-03-23T07:38:37;5.65;;;1.45;;
78612;SDS011;67933;51.060;3.638;2023-03-23T07:41:03;4.47;;;1.58;;
78612;SDS011;67933;51.060;3.638;2023-03-23T07:43:29;5.78;;;1.95;;
78612;SDS011;67933;51.060;3.638;2023-03-23T07:45:55;4.50;;;1.50;;
78612;SDS011;67933;51.060;3.638;2023-03-23T07:48:21;6.45;;;2.67;;
78612;SDS011;67933;51.060;3.638;2023-03-23T07:50:47;4.82;;;2.80;;
78612;SDS011;67933;51.060;3.638;2023-03-23T07:53:12;5.95;;;4.65;;
78612;SDS011;67933;51.060;3.638;2023-03-23T07:55:38;6.70;;;3.25;;
78612;SDS011;67933;51.060;3.638;2023-03-23T07:58:04;5.50;;;3.28;;
78612;SDS011;67933;51.060;3.638;2023-03-23T08:00:29;5.25;;;2.45;;
78612;SDS011;67933;51.060;3.638;2023-03-23T08:02:55;5.53;;;1.50;;
78612;SDS011;67933;51.060;3.638;2023-03-23T08:05:22;7.00;;;3.90;;
78612;SDS011;67933;51.060;3.638;2023-03-23T08:07:48;4.28;;;1.48;;
78612;SDS011;67933;51.060;3.638;2023-03-23T08:10:14;6.50;;;2.03;;
78612;SDS011;67933;51.060;3.638;2023-03-23T08:12:43;2.47;;;1.60;;
78612;SDS011;67933;51.060;3.638;2023-03-23T08:15:10;6.25;;;2.50;;
78612;SDS011;67933;51.060;3.638;2023-03-23T08:17:40;4.55;;;1.95;;
78612;SDS011;67933;51.060;3.638;2023-03-23T08:20:06;4.93;;;1.17;;
78612;SDS011;67933;51.060;3.638;2023-03-23T08:22:36;4.53;;;1.30;;
78612;SDS011;67933;51.060;3.638;2023-03-23T08:25:03;4.45;;;1.10;;
78612;SDS011;67933;51.060;3.638;2023-03-23T08:27:31;4.47;;;1.27;;
78612;SDS011;67933;51.060;3.638;2023-03-23T08:29:57;3.45;;;1.10;;
78612;SDS011;67933;51.060;3.638;2023-03-23T08:32:22;5.13;;;1.45;;
78612;SDS011;67933;51.060;3.638;2023-03-23T08:34:48;4.07;;;1.52;;
78612;SDS011;67933;51.060;3.638;2023-03-23T08:37:14;6.43;;;1.30;;
78612;SDS011;67933;51.060;3.638;2023-03-23T08:39:40;3.50;;;1.20;;
78612;SDS011;67933;51.060;3.638;2023-03-23T08:42:05;6.63;;;1.58;;
78612;SDS011;67933;51.060;3.638;2023-03-23T08:44:31;7.72;;;1.48;;
78612;SDS011;67933;51.060;3.638;2023-03-23T08:46:56;7.35;;;2.08;;
78612;SDS011;67933;51.060;3.638;2023-03-23T08:49:23;4.85;;;1.95;;
78612;SDS011;67933;51.060;3.638;2023-03-23T08:51:49;6.43;;;1.83;;
78612;SDS011;67933;51.060;3.638;2023-03-23T08:54:14;6.50;;;1.52;;
78612;SDS011;67933;51.060;3.638;2023-03-23T08:56:42;7.85;;;1.45;;
78612;SDS011;67933;51.060;3.638;2023-03-23T08:59:07;2.92;;;1.42;;
78612;SDS011;67933;51.060;3.638;2023-03-23T09:01:33;3.72;;;1.35;;
78612;SDS011;67933;51.060;3.638;2023-03-23T09:03:58;5.78;;;1.65;;
78612;SDS011;67933;51.060;3.638;2023-03-23T09:06:24;5.95;;;1.70;;
78612;SDS011;67933;51.060;3.638;2023-03-23T09:08:50;6.63;;;1.95;;
78612;SDS011;67933;51.060;3.638;2023-03-23T09:11:16;2.55;;;1.17;;
78612;SDS011;67933;51.060;3.638;2023-03-23T09:13:42;6.28;;;1.70;;
78612;SDS011;67933;51.060;3.638;2023-03-23T09:16:07;2.25;;;1.30;;
78612;SDS011;67933;51.060;3.638;2023-03-23T09:18:34;3.97;;;1.20;;
78612;SDS011;67933;51.060;3.638;2023-03-23T09:21:00;3.90;;;1.40;;
78612;SDS011;67933;51.060;3.638;2023-03-23T09:23:26;3.40;;;1.33;;
78612;SDS011;67933;51.060;3.638;2023-03-23T09:25:52;3.88;;;1.42;;
78612;SDS011;67933;51.060;3.638;2023-03-23T09:28:18;2.78;;;1.08;;
78612;SDS011;67933;51.060;3.638;2023-03-23T09:30:44;3.58;;;1.60;;
78612;SDS011;67933;51.060;3.638;2023-03-23T09:33:10;2.63;;;1.10;;
78612;SDS011;67933;51.060;3.638;2023-03-23T09:35:36;3.33;;;1.35;;
78612;SDS011;67933;51.060;3.638;2023-03-23T09:38:03;3.75;;;1.00;;
78612;SDS011;67933;51.060;3.638;2023-03-23T09:46:29;1.90;;;1.30;;
78612;SDS011;67933;51.060;3.638;2023-03-23T09:49:13;3.53;;;1.20;;
78612;SDS011;67933;51.060;3.638;2023-03-23T09:51:53;4.50;;;1.33;;
78612;SDS011;67933;51.060;3.638;2023-03-23T09:54:35;2.28;;;1.20;;
78612;SDS011;67933;51.060;3.638;2023-03-23T09:57:04;2.22;;;1.33;;
78612;SDS011;67933;51.060;3.638;2023-03-23T09:59:39;9.88;;;8.88;;
78612;SDS011;67933;51.060;3.638;2023-03-23T10:02:18;7.57;;;1.92;;
78612;SDS011;67933;51.060;3.638;2023-03-23T10:04:51;5.32;;;3.78;;
78612;SDS011;67933;51.060;3.638;2023-03-23T10:07:22;6.35;;;2.75;;
78612;SDS011;67933;51.060;3.638;2023-03-23T10:09:52;7.60;;;1.80;;
78612;SDS011;67933;51.060;3.638;2023-03-23T10:12:33;3.35;;;1.40;;
78612;SDS011;67933;51.060;3.638;2023-03-23T10:18:03;5.47;;;1.80;;
78612;SDS011;67933;51.060;3.638;2023-03-23T10:25:41;7.15;;;2.55;;
78612;SDS011;67933;51.060;3.638;2023-03-23T10:28:12;8.20;;;1.98;;
78612;SDS011;67933;51.060;3.638;2023-03-23T10:33:29;6.20;;;1.40;;
78612;SDS011;67933;51.060;3.638;2023-03-23T10:38:44;7.47;;;1.75;;
78612;SDS011;67933;51.060;3.638;2023-03-23T10:41:15;6.88;;;1.77;;
78612;SDS011;67933;51.060;3.638;2023-03-23T10:43:43;7.55;;;1.70;;
78612;SDS011;67933;51.060;3.638;2023-03-23T10:49:01;8.93;;;2.38;;
78612;SDS011;67933;51.060;3.638;2023-03-23T10:51:34;7.22;;;1.85;;
78612;SDS011;67933;51.060;3.638;2023-03-23T10:54:02;5.40;;;1.98;;
78612;SDS011;67933;51.060;3.638;2023-03-23T10:56:36;10.27;;;2.05;;
78612;SDS011;67933;51.060;3.638;2023-03-23T10:59:13;8.63;;;2.72;;
78612;SDS011;67933;51.060;3.638;2023-03-23T11:01:45;9.07;;;2.80;;
78612;SDS011;67933;51.060;3.638;2023-03-23T11:04:15;8.10;;;2.30;;
78612;SDS011;67933;51.060;3.638;2023-03-23T11:06:45;6.82;;;2.55;;
78612;SDS011;67933;51.060;3.638;2023-03-23T11:09:17;4.60;;;1.90;;
78612;SDS011;67933;51.060;3.638;2023-03-23T11:11:49;6.25;;;2.13;;
78612;SDS011;67933;51.060;3.638;2023-03-23T11:16:51;6.18;;;2.17;;
78612;SDS011;67933;51.060;3.638;2023-03-23T11:19:24;8.93;;;2.45;;
78612;SDS011;67933;51.060;3.638;2023-03-23T11:21:52;5.50;;;1.55;;
78612;SDS011;67933;51.060;3.638;2023-03-23T11:24:26;7.95;;;1.98;;
78612;SDS011;67933;51.060;3.638;2023-03-23T11:26:52;7.65;;;1.73;;
78612;SDS011;67933;51.060;3.638;2023-03-23T11:29:22;6.93;;;2.00;;
78612;SDS011;67933;51.060;3.638;2023-03-23T11:31:50;4.47;;;1.90;;
78612;SDS011;67933;51.060;3.638;2023-03-23T11:34:33;8.38;;;2.40;;
78612;SDS011;67933;51.060;3.638;2023-03-23T11:39:32;6.60;;;1.90;;
78612;SDS011;67933;51.060;3.638;2023-03-23T11:42:11;8.75;;;2.08;;
78612;SDS011;67933;51.060;3.638;2023-03-23T11:44:42;11.13;;;3.85;;
78612;SDS011;67933;51.060;3.638;2023-03-23T11:47:17;10.90;;;3.45;;
78612;SDS011;67933;51.060;3.638;2023-03-23T11:55:15;7.97;;;1.98;;
78612;SDS011;67933;51.060;3.638;2023-03-23T11:57:45;4.90;;;1.55;;
78612;SDS011;67933;51.060;3.638;2023-03-23T12:00:18;7.70;;;1.92;;
78612;SDS011;67933;51.060;3.638;2023-03-23T12:05:33;7.32;;;1.80;;
78612;SDS011;67933;51.060;3.638;2023-03-23T12:27:57;5.80;;;2.10;;
78612;SDS011;67933;51.060;3.638;2023-03-23T12:35:59;8.30;;;2.63;;
78612;SDS011;67933;51.060;3.638;2023-03-23T12:43:42;5.15;;;1.88;;
78612;SDS011;67933;51.060;3.638;2023-03-23T12:49:48;7.80;;;1.80;;
78612;SDS011;67933;51.060;3.638;2023-03-23T12:52:19;8.82;;;2.10;;
78612;SDS011;67933;51.060;3.638;2023-03-23T12:55:00;5.10;;;1.90;;
78612;SDS011;67933;51.060;3.638;2023-03-23T12:57:39;8.02;;;1.58;;
78612;SDS011;67933;51.060;3.638;2023-03-23T13:05:44;10.60;;;2.25;;
78612;SDS011;67933;51.060;3.638;2023-03-23T13:08:20;7.80;;;2.28;;
78612;SDS011;67933;51.060;3.638;2023-03-23T13:10:52;8.93;;;2.35;;
78612;SDS011;67933;51.060;3.638;2023-03-23T13:13:26;8.02;;;2.00;;
78612;SDS011;67933;51.060;3.638;2023-03-23T13:21:50;6.40;;;1.83;;
78612;SDS011;67933;51.060;3.638;2023-03-23T13:24:25;8.95;;;1.77;;
78612;SDS011;67933;51.060;3.638;2023-03-23T13:26:53;10.00;;;2.30;;
78612;SDS011;67933;51.060;3.638;2023-03-23T13:29:23;7.43;;;2.15;;
78612;SDS011;67933;51.060;3.638;2023-03-23T13:31:50;5.32;;;1.77;;
78612;SDS011;67933;51.060;3.638;2023-03-23T13:37:08;5.47;;;1.67;;
78612;SDS011;67933;51.060;3.638;2023-03-23T13:39:37;7.72;;;1.90;;
78612;SDS011;67933;51.060;3.638;2023-03-23T13:54:48;8.05;;;1.80;;
78612;SDS011;67933;51.060;3.638;2023-03-23T13:57:24;4.75;;;1.75;;
78612;SDS011;67933;51.060;3.638;2023-03-23T13:59:59;10.50;;;2.75;;
78612;SDS011;67933;51.060;3.638;2023-03-23T14:02:37;2.58;;;1.67;;
78612;SDS011;67933;51.060;3.638;2023-03-23T14:07:57;7.85;;;1.95;;
78612;SDS011;67933;51.060;3.638;2023-03-23T14:10:48;4.43;;;1.42;;
78612;SDS011;67933;51.060;3.638;2023-03-23T14:16:17;6.45;;;1.73;;
78612;SDS011;67933;51.060;3.638;2023-03-23T14:18:52;6.05;;;2.42;;
78612;SDS011;67933;51.060;3.638;2023-03-23T14:27:10;6.30;;;1.77;;
78612;SDS011;67933;51.060;3.638;2023-03-23T14:29:46;9.50;;;1.90;;
78612;SDS011;67933;51.060;3.638;2023-03-23T14:32:23;7.93;;;1.50;;
78612;SDS011;67933;51.060;3.638;2023-03-23T14:34:51;6.28;;;2.10;;
78612;SDS011;67933;51.060;3.638;2023-03-23T14:37:17;5.95;;;2.20;;
78612;SDS011;67933;51.060;3.638;2023-03-23T14:39:47;9.25;;;2.45;;
78612;SDS011;67933;51.060;3.638;2023-03-23T14:42:17;7.82;;;1.70;;
78612;SDS011;67933;51.060;3.638;2023-03-23T14:44:48;8.10;;;1.83;;
78612;SDS011;67933;51.060;3.638;2023-03-23T14:47:22;4.95;;;2.03;;
78612;SDS011;67933;51.060;3.638;2023-03-23T14:49:55;4.32;;;1.85;;
78612;SDS011;67933;51.060;3.638;2023-03-23T14:52:24;8.55;;;3.03;;
78612;SDS011;67933;51.060;3.638;2023-03-23T14:54:51;4.97;;;1.55;;
78612;SDS011;67933;51.060;3.638;2023-03-23T14:59:44;3.92;;;1.52;;
78612;SDS011;67933;51.060;3.638;2023-03-23T15:02:17;7.78;;;2.42;;
78612;SDS011;67933;51.060;3.638;2023-03-23T15:04:45;7.90;;;2.63;;
78612;SDS011;67933;51.060;3.638;2023-03-23T15:07:14;8.52;;;2.00;;
78612;SDS011;67933;51.060;3.638;2023-03-23T15:09:43;5.97;;;1.77;;
78612;SDS011;67933;51.060;3.638;2023-03-23T15:12:21;5.97;;;2.20;;
78612;SDS011;67933;51.060;3.638;2023-03-23T15:14:50;6.05;;;1.88;;
78612;SDS011;67933;51.060;3.638;2023-03-23T15:17:20;5.60;;;1.70;;
78612;SDS011;67933;51.060;3.638;2023-03-23T15:19:53;6.30;;;1.45;;
78612;SDS011;67933;51.060;3.638;2023-03-23T15:22:30;5.68;;;1.88;;
78612;SDS011;67933;51.060;3.638;2023-03-23T15:25:07;5.13;;;1.85;;
78612;SDS011;67933;51.060;3.638;2023-03-23T15:27:38;7.15;;;1.88;;
78612;SDS011;67933;51.060;3.638;2023-03-23T15:33:13;5.90;;;2.00;;
78612;SDS011;67933;51.060;3.638;2023-03-23T15:35:39;5.72;;;1.92;;
78612;SDS011;67933;51.060;3.638;2023-03-23T15:38:23;10.75;;;2.72;;
78612;SDS011;67933;51.060;3.638;2023-03-23T15:41:00;6.70;;;2.35;;
78612;SDS011;67933;51.060;3.638;2023-03-23T15:43:35;5.32;;;1.90;;
78612;SDS011;67933;51.060;3.638;2023-03-23T15:48:46;6.47;;;1.77;;
78612;SDS011;67933;51.060;3.638;2023-03-23T15:51:14;8.05;;;2.25;;
78612;SDS011;67933;51.060;3.638;2023-03-23T15:53:40;7.75;;;1.75;;
78612;SDS011;67933;51.060;3.638;2023-03-23T15:56:06;5.25;;;1.38;;
78612;SDS011;67933;51.060;3.638;2023-03-23T15:58:34;7.45;;;1.67;;
78612;SDS011;67933;51.060;3.638;2023-03-23T16:01:04;9.65;;;2.42;;
78612;SDS011;67933;51.060;3.638;2023-03-23T16:04:33;9.75;;;2.28;;
78612;SDS011;67933;51.060;3.638;2023-03-23T16:06:36;8.48;;;2.00;;
78612;SDS011;67933;51.060;3.638;2023-03-23T16:09:02;7.10;;;2.13;;
78612;SDS011;67933;51.060;3.638;2023-03-23T16:11:29;7.18;;;2.63;;
78612;SDS011;67933;51.060;3.638;2023-03-23T16:13:55;9.13;;;2.20;;
78612;SDS011;67933;51.060;3.638;2023-03-23T16:16:22;7.43;;;2.00;;
78612;SDS011;67933;51.060;3.638;2023-03-23T16:18:51;5.45;;;1.80;;
78612;SDS011;67933;51.060;3.638;2023-03-23T16:21:17;4.45;;;1.88;;
78612;SDS011;67933;51.060;3.638;2023-03-23T16:23:42;8.63;;;2.22;;
78612;SDS011;67933;51.060;3.638;2023-03-23T16:28:35;8.77;;;1.73;;
78612;SDS011;67933;51.060;3.638;2023-03-23T16:31:00;6.82;;;1.75;;
78612;SDS011;67933;51.060;3.638;2023-03-23T16:33:26;6.78;;;1.70;;
78612;SDS011;67933;51.060;3.638;2023-03-23T16:35:51;9.93;;;2.15;;
78612;SDS011;67933;51.060;3.638;2023-03-23T16:38:17;6.10;;;1.48;;
78612;SDS011;67933;51.060;3.638;2023-03-23T16:40:43;9.50;;;1.98;;
78612;SDS011;67933;51.060;3.638;2023-03-23T16:43:11;5.97;;;1.55;;
78612;SDS011;67933;51.060;3.638;2023-03-23T16:45:37;3.65;;;1.73;;
78612;SDS011;67933;51.060;3.638;2023-03-23T16:48:05;5.10;;;2.10;;
78612;SDS011;67933;51.060;3.638;2023-03-23T16:50:31;6.85;;;1.52;;
78612;SDS011;67933;51.060;3.638;2023-03-23T16:52:57;8.57;;;1.55;;
78612;SDS011;67933;51.060;3.638;2023-03-23T16:55:23;5.72;;;1.60;;
78612;SDS011;67933;51.060;3.638;2023-03-23T16:57:51;5.13;;;1.98;;
78612;SDS011;67933;51.060;3.638;2023-03-23T17:00:17;6.80;;;1.55;;
78612;SDS011;67933;51.060;3.638;2023-03-23T17:02:48;6.35;;;1.75;;
78612;SDS011;67933;51.060;3.638;2023-03-23T17:05:15;7.95;;;1.98;;
78612;SDS011;67933;51.060;3.638;2023-03-23T17:07:42;7.25;;;1.67;;
78612;SDS011;67933;51.060;3.638;2023-03-23T17:10:08;7.70;;;1.90;;
78612;SDS011;67933;51.060;3.638;2023-03-23T17:12:35;6.78;;;1.55;;
78612;SDS011;67933;51.060;3.638;2023-03-23T17:15:00;6.82;;;2.15;;
78612;SDS011;67933;51.060;3.638;2023-03-23T17:17:27;6.90;;;1.95;;
78612;SDS011;67933;51.060;3.638;2023-03-23T17:19:53;10.93;;;1.98;;
78612;SDS011;67933;51.060;3.638;2023-03-23T17:22:18;8.38;;;2.03;;
78612;SDS011;67933;51.060;3.638;2023-03-23T17:24:43;7.55;;;1.77;;